createdAt,value
2022-11-05T00:01:59.670Z,97350.81
2022-11-05T00:04:41.734Z,97348.28
2022-11-05T00:07:27.088Z,97352.88
2022-11-05T00:09:58.221Z,97347.44
2022-11-05T00:12:40.256Z,97352.00
2022-11-05T00:15:23.075Z,97358.16
2022-11-05T00:17:51.306Z,97357.53
2022-11-05T00:20:19.596Z,97354.31
2022-11-05T00:23:01.648Z,97356.25
2022-11-05T00:25:31.282Z,97357.38
2022-11-05T00:28:02.547Z,97360.06
2022-11-05T00:30:31.138Z,97359.47
2022-11-05T00:33:02.135Z,97367.72
2022-11-05T00:35:30.374Z,97360.88
2022-11-05T00:37:58.939Z,97369.13
2022-11-05T00:40:27.205Z,97376.56
2022-11-05T00:43:11.214Z,97377.25
2022-11-05T00:45:40.232Z,97378.72
2022-11-05T00:48:22.265Z,97382.00
2022-11-05T00:50:50.498Z,97373.84
2022-11-05T00:53:18.715Z,97383.66
2022-11-05T00:55:47.002Z,97390.97
2022-11-05T00:58:17.785Z,97396.06
2022-11-05T01:00:46.733Z,97391.97
2022-11-05T01:03:16.139Z,97392.56
2022-11-05T01:05:45.304Z,97395.25
2022-11-05T01:08:13.701Z,97398.03
2022-11-05T01:10:42.762Z,97399.50
2022-11-05T01:13:13.281Z,97398.03
2022-11-05T01:15:43.278Z,97401.66
2022-11-05T01:18:11.483Z,97395.84
2022-11-05T01:20:40.265Z,97398.75
2022-11-05T01:23:13.227Z,97404.34
2022-11-05T01:25:41.974Z,97400.56
2022-11-05T01:28:10.795Z,97409.31
2022-11-05T01:30:39.087Z,97412.59
2022-11-05T01:33:09.206Z,97416.53
2022-11-05T01:35:37.898Z,97419.19
2022-11-05T01:38:06.156Z,97423.69
2022-11-05T01:40:34.381Z,97421.13
2022-11-05T01:43:02.607Z,97428.66
2022-11-05T01:45:48.593Z,97427.44
2022-11-05T01:48:18.792Z,97430.94
2022-11-05T01:50:55.022Z,97434.44
2022-11-05T01:53:26.482Z,97431.88
2022-11-05T01:55:58.577Z,97433.44
2022-11-05T01:58:30.065Z,97447.34
2022-11-05T02:00:58.736Z,97451.94
2022-11-05T02:03:28.311Z,97459.94
2022-11-05T02:05:57.141Z,97452.25
2022-11-05T02:08:43.735Z,97445.00
2022-11-05T02:11:13.601Z,97455.69
2022-11-05T02:13:42.087Z,97461.16
2022-11-05T02:16:13.709Z,97460.19
2022-11-05T02:18:48.728Z,97459.84
2022-11-05T02:21:36.640Z,97469.22
2022-11-05T02:24:26.469Z,97461.97
2022-11-05T02:27:03.543Z,97468.50
2022-11-05T02:29:48.634Z,97472.41
2022-11-05T02:32:22.538Z,97468.19
2022-11-05T02:34:53.392Z,97475.94
2022-11-05T02:37:27.225Z,97473.84
2022-11-05T02:39:58.212Z,97468.66
2022-11-05T02:42:31.549Z,97471.22
2022-11-05T02:45:03.456Z,97472.81
2022-11-05T02:47:35.110Z,97476.66
2022-11-05T02:50:08.044Z,97484.06
2022-11-05T02:52:38.744Z,97492.22
2022-11-05T02:55:08.600Z,97483.66
2022-11-05T02:57:37.108Z,97481.09
2022-11-05T03:00:07.290Z,97483.38
2022-11-05T03:02:37.062Z,97484.06
2022-11-05T03:05:05.618Z,97481.94
2022-11-05T03:07:39.413Z,97475.31
2022-11-05T03:10:26.524Z,97475.41
2022-11-05T03:13:02.260Z,97484.66
2022-11-05T03:15:40.219Z,97486.44
2022-11-05T03:18:12.275Z,97476.06
2022-11-05T03:20:43.331Z,97476.75
2022-11-05T03:23:15.940Z,97475.94
2022-11-05T03:25:46.347Z,97473.97
2022-11-05T03:28:14.869Z,97473.13
2022-11-05T03:30:43.114Z,97467.44
2022-11-05T03:33:14.196Z,97477.88
2022-11-05T03:35:45.008Z,97482.22
2022-11-05T03:38:14.959Z,97478.34
2022-11-05T03:40:43.170Z,97483.94
2022-11-05T03:43:12.072Z,97481.72
2022-11-05T03:45:43.560Z,97489.84
2022-11-05T03:48:13.377Z,97487.69
2022-11-05T03:50:43.327Z,97477.38
2022-11-05T03:53:14.205Z,97485.38
2022-11-05T03:55:45.807Z,97486.13
2022-11-05T03:58:14.338Z,97489.13
2022-11-05T04:00:42.892Z,97495.56
2022-11-05T04:03:12.913Z,97492.31
2022-11-05T04:05:41.359Z,97497.78
2022-11-05T04:08:24.041Z,97500.66
2022-11-05T04:11:06.369Z,97500.25
2022-11-05T04:13:34.616Z,97510.56
2022-11-05T04:16:16.639Z,97511.91
2022-11-05T04:18:49.215Z,97508.41
2022-11-05T04:21:31.715Z,97518.56
2022-11-05T04:24:09.975Z,97520.25
2022-11-05T04:26:39.159Z,97516.84
2022-11-05T04:29:21.199Z,97519.13
2022-11-05T04:31:50.458Z,97524.94
2022-11-05T04:34:22.273Z,97523.06
2022-11-05T04:36:50.684Z,97519.94
2022-11-05T04:39:19.215Z,97524.66
2022-11-05T04:41:48.868Z,97521.13
2022-11-05T04:44:17.208Z,97516.66
2022-11-05T04:46:45.464Z,97518.81
2022-11-05T04:49:14.562Z,97514.41
2022-11-05T04:51:44.318Z,97523.72
2022-11-05T04:54:12.538Z,97523.19
2022-11-05T04:56:40.796Z,97518.09
2022-11-05T04:59:09.401Z,97524.41
2022-11-05T05:01:37.715Z,97526.22
2022-11-05T05:04:06.155Z,97522.16
2022-11-05T05:06:35.327Z,97520.63
2022-11-05T05:09:05.194Z,97527.09
2022-11-05T05:11:33.412Z,97526.50
2022-11-05T05:14:01.713Z,97531.13
2022-11-05T05:16:29.940Z,97533.13
2022-11-05T05:18:58.650Z,97528.31
2022-11-05T05:21:39.101Z,97538.13
2022-11-05T05:24:10.639Z,97538.81
2022-11-05T05:26:39.017Z,97544.16
2022-11-05T05:29:07.262Z,97546.28
2022-11-05T05:31:35.518Z,97546.44
2022-11-05T05:34:03.785Z,97554.28
2022-11-05T05:36:32.102Z,97551.41
2022-11-05T05:39:00.578Z,97553.16
2022-11-05T05:41:30.183Z,97559.25
2022-11-05T05:43:58.412Z,97556.78
2022-11-05T05:46:26.638Z,97561.53
2022-11-05T05:48:54.925Z,97560.59
2022-11-05T05:51:23.148Z,97564.31
2022-11-05T05:53:51.366Z,97564.63
2022-11-05T05:56:20.746Z,97568.84
2022-11-05T05:58:50.386Z,97566.50
2022-11-05T06:01:19.983Z,97569.97
2022-11-05T06:03:48.623Z,97569.44
2022-11-05T06:06:19.871Z,97572.94
2022-11-05T06:08:48.316Z,97580.31
2022-11-05T06:11:16.555Z,97582.94
2022-11-05T06:13:44.792Z,97585.66
2022-11-05T06:16:14.362Z,97593.97
2022-11-05T06:18:42.604Z,97593.09
2022-11-05T06:21:11.416Z,97592.34
2022-11-05T06:23:40.451Z,97593.38
2022-11-05T06:26:10.338Z,97599.63
2022-11-05T06:28:38.543Z,97588.66
2022-11-05T06:31:06.895Z,97596.25
2022-11-05T06:33:36.490Z,97590.31
2022-11-05T06:36:05.442Z,97598.72
2022-11-05T06:38:34.486Z,97598.59
2022-11-05T06:41:07.260Z,97606.72
2022-11-05T06:43:38.223Z,97606.16
2022-11-05T06:46:06.577Z,97599.66
2022-11-05T06:48:36.161Z,97610.34
2022-11-05T06:51:04.619Z,97613.78
2022-11-05T06:53:32.843Z,97629.97
2022-11-05T06:56:03.798Z,97624.81
2022-11-05T06:58:32.337Z,97625.94
2022-11-05T07:01:03.141Z,97630.72
2022-11-05T07:03:31.533Z,97628.31
2022-11-05T07:06:01.349Z,97631.25
2022-11-05T07:08:31.662Z,97638.22
2022-11-05T07:11:00.263Z,97632.47
2022-11-05T07:13:28.738Z,97637.47
2022-11-05T07:15:57.006Z,97641.72
2022-11-05T07:18:25.272Z,97641.19
2022-11-05T07:20:53.784Z,97642.91
2022-11-05T07:23:23.368Z,97639.50
2022-11-05T07:25:51.622Z,97649.84
2022-11-05T07:28:20.241Z,97643.91
2022-11-05T07:30:49.265Z,97649.19
2022-11-05T07:33:17.528Z,97652.28
2022-11-05T07:35:45.729Z,97651.81
2022-11-05T07:38:13.977Z,97657.84
2022-11-05T07:40:43.597Z,97649.53
2022-11-05T07:43:12.137Z,97655.03
2022-11-05T07:45:40.614Z,97667.66
2022-11-05T07:48:08.845Z,97659.34
2022-11-05T07:50:37.708Z,97659.22
2022-11-05T07:53:06.682Z,97665.59
2022-11-05T07:55:35.349Z,97672.47
2022-11-05T07:58:04.967Z,97676.69
2022-11-05T08:00:33.370Z,97674.22
2022-11-05T08:03:07.290Z,97679.25
2022-11-05T08:05:37.922Z,97682.81
2022-11-05T08:08:06.627Z,97685.34
2022-11-05T08:10:35.559Z,97684.03
2022-11-05T08:13:05.661Z,97683.28
2022-11-05T08:15:33.942Z,97690.84
2022-11-05T08:18:03.283Z,97692.50
2022-11-05T08:20:31.544Z,97691.69
2022-11-05T08:22:59.826Z,97690.19
2022-11-05T08:25:28.119Z,97695.97
2022-11-05T08:27:57.103Z,97694.63
2022-11-05T08:30:26.837Z,97694.59
2022-11-05T08:32:58.085Z,97695.13
2022-11-05T08:35:26.353Z,97696.94
2022-11-05T08:37:58.763Z,97692.28
2022-11-05T08:40:27.209Z,97703.22
2022-11-05T08:42:57.695Z,97704.69
2022-11-05T08:45:27.391Z,97705.81
2022-11-05T08:48:00.671Z,97697.91
2022-11-05T08:50:28.974Z,97700.88
2022-11-05T08:52:57.514Z,97705.50
2022-11-05T08:55:25.774Z,97710.97
2022-11-05T08:57:57.219Z,97709.75
2022-11-05T09:00:26.914Z,97702.41
2022-11-05T09:02:55.176Z,97713.00
2022-11-05T09:05:23.418Z,97711.97
2022-11-05T09:07:55.266Z,97720.53
2022-11-05T09:10:28.754Z,97724.22
2022-11-05T09:12:57.118Z,97718.72
2022-11-05T09:15:26.766Z,97714.94
2022-11-05T09:17:55.516Z,97717.75
2022-11-05T09:20:23.989Z,97714.19
2022-11-05T09:22:52.345Z,97714.06
2022-11-05T09:25:20.632Z,97713.41
2022-11-05T09:27:48.917Z,97720.91
2022-11-05T09:30:17.452Z,97708.19
2022-11-05T09:32:47.164Z,97713.63
2022-11-05T09:35:15.478Z,97713.88
2022-11-05T09:37:43.723Z,97725.94
2022-11-05T09:40:13.118Z,97722.06
2022-11-05T09:42:42.778Z,97723.78
2022-11-05T09:45:14.264Z,97724.78
2022-11-05T09:47:43.971Z,97723.69
2022-11-05T09:50:16.970Z,97724.31
2022-11-05T09:52:45.207Z,97724.03
2022-11-05T09:55:24.971Z,97732.16
2022-11-05T09:57:54.365Z,97729.56
2022-11-05T10:00:22.759Z,97722.22
2022-11-05T10:02:52.821Z,97727.22
2022-11-05T10:05:22.560Z,97726.81
2022-11-05T10:07:52.281Z,97727.56
2022-11-05T10:10:34.139Z,97726.03
2022-11-05T10:13:07.836Z,97727.06
2022-11-05T10:15:39.273Z,97735.72
2022-11-05T10:18:15.181Z,97738.38
2022-11-05T10:20:44.969Z,97743.72
2022-11-05T10:23:14.723Z,97737.78
2022-11-05T10:25:45.131Z,97740.47
2022-11-05T10:28:17.354Z,97737.94
2022-11-05T10:30:45.961Z,97738.53
2022-11-05T10:33:15.511Z,97735.53
2022-11-05T10:35:48.953Z,97739.53
2022-11-05T10:38:17.167Z,97730.28
2022-11-05T10:40:50.608Z,97733.47
2022-11-05T10:43:19.787Z,97737.09
2022-11-05T10:45:51.937Z,97737.09
2022-11-05T10:48:29.021Z,97733.44
2022-11-05T10:50:58.679Z,97740.50
2022-11-05T10:53:29.187Z,97737.31
2022-11-05T10:56:01.703Z,97737.56
2022-11-05T10:58:30.736Z,97739.66
2022-11-05T11:01:04.261Z,97741.94
2022-11-05T11:03:35.859Z,97747.09
2022-11-05T11:06:08.179Z,97739.91
2022-11-05T11:08:37.059Z,97749.28
2022-11-05T11:11:07.435Z,97742.91
2022-11-05T11:13:50.589Z,97739.38
2022-11-05T11:16:21.719Z,97733.56
2022-11-05T11:18:54.761Z,97735.63
2022-11-05T11:21:24.608Z,97733.66
2022-11-05T11:23:56.991Z,97734.56
2022-11-05T11:26:30.183Z,97736.97
2022-11-05T11:28:59.716Z,97734.69
2022-11-05T11:31:28.616Z,97733.94
2022-11-05T11:33:58.877Z,97740.84
2022-11-05T11:36:33.192Z,97736.72
2022-11-05T11:39:05.755Z,97728.81
2022-11-05T11:41:36.560Z,97730.59
2022-11-05T11:44:09.095Z,97722.94
2022-11-05T11:46:37.300Z,97727.31
2022-11-05T11:49:05.598Z,97722.72
2022-11-05T11:51:40.811Z,97721.44
2022-11-05T11:54:20.204Z,97727.66
2022-11-05T11:56:49.123Z,97728.44
2022-11-05T11:59:35.381Z,97733.94
2022-11-05T12:02:24.283Z,97741.84
2022-11-05T12:05:03.638Z,97730.66
2022-11-05T12:07:40.242Z,97732.06
2022-11-05T12:10:41.407Z,97734.41
2022-11-05T12:13:27.296Z,97730.66
2022-11-05T12:15:56.440Z,97722.94
2022-11-05T12:18:28.723Z,97718.81
2022-11-05T12:21:06.601Z,97721.84
2022-11-05T12:23:46.958Z,97716.84
2022-11-05T12:26:19.995Z,97719.19
2022-11-05T12:29:19.708Z,97715.59
2022-11-05T12:31:48.741Z,97710.50
2022-11-05T12:34:28.749Z,97712.44
2022-11-05T12:37:05.814Z,97712.50
2022-11-05T12:39:44.865Z,97713.91
2022-11-05T12:42:19.995Z,97707.63
2022-11-05T12:44:56.701Z,97714.53
2022-11-05T12:47:34.827Z,97703.25
2022-11-05T12:50:09.480Z,97699.13
2022-11-05T12:52:59.781Z,97694.41
2022-11-05T12:55:37.614Z,97688.25
2022-11-05T12:58:11.634Z,97686.84
2022-11-05T13:00:39.885Z,97694.31
2022-11-05T13:03:21.680Z,97687.84
2022-11-05T13:05:50.894Z,97684.72
2022-11-05T13:08:22.742Z,97693.78
2022-11-05T13:10:55.352Z,97681.00
2022-11-05T13:13:27.841Z,97676.13
2022-11-05T13:15:57.803Z,97670.16
2022-11-05T13:18:29.178Z,97668.47
2022-11-05T13:20:57.439Z,97666.75
2022-11-05T13:23:31.009Z,97668.06
2022-11-05T13:26:03.439Z,97662.56
2022-11-05T13:28:37.121Z,97665.41
2022-11-05T13:31:06.705Z,97671.91
2022-11-05T13:33:36.459Z,97681.84
2022-11-05T13:36:20.815Z,97685.00
2022-11-05T13:39:03.664Z,97690.28
2022-11-05T13:41:44.201Z,97684.53
2022-11-05T13:44:22.811Z,97688.91
2022-11-05T13:47:02.162Z,97678.00
2022-11-05T13:49:41.166Z,97671.69
2022-11-05T13:52:21.018Z,97678.19
2022-11-05T13:55:04.214Z,97670.81
2022-11-05T13:57:49.915Z,97673.03
2022-11-05T14:00:19.615Z,97656.38
2022-11-05T14:02:50.154Z,97650.84
2022-11-05T14:05:24.486Z,97655.06
2022-11-05T14:07:53.014Z,97646.56
2022-11-05T14:10:31.428Z,97650.53
2022-11-05T14:13:01.845Z,97643.00
2022-11-05T14:15:31.092Z,97645.59
2022-11-05T14:18:00.683Z,97640.28
2022-11-05T14:20:40.707Z,97649.56
2022-11-05T14:23:40.722Z,97656.13
2022-11-05T14:26:17.125Z,97649.25
2022-11-05T14:28:52.599Z,97652.47
2022-11-05T14:31:41.006Z,97648.72
2022-11-05T14:34:22.598Z,97645.81
2022-11-05T14:37:07.155Z,97652.22
2022-11-05T14:39:45.048Z,97651.78
2022-11-05T14:42:20.842Z,97649.63
2022-11-05T14:45:02.026Z,97661.44
2022-11-05T14:47:32.189Z,97650.75
2022-11-05T14:50:03.200Z,97637.56
2022-11-05T14:52:31.458Z,97631.16
2022-11-05T14:55:00.039Z,97631.75
2022-11-05T14:57:57.822Z,97636.00
2022-11-05T15:00:44.537Z,97621.19
2022-11-05T15:03:32.980Z,97617.03
2022-11-05T15:06:07.071Z,97609.16
2022-11-05T15:08:38.801Z,97617.75
2022-11-05T15:11:13.184Z,97619.59
2022-11-05T15:13:49.265Z,97617.53
2022-11-05T15:16:21.355Z,97627.75
2022-11-05T15:18:49.912Z,97626.03
2022-11-05T15:21:18.789Z,97645.22
2022-11-05T15:23:48.055Z,97640.38
2022-11-05T15:26:19.720Z,97647.19
2022-11-05T15:28:48.529Z,97638.00
2022-11-05T15:31:26.964Z,97648.09
2022-11-05T15:34:10.953Z,97642.97
2022-11-05T15:36:39.261Z,97641.13
2022-11-05T15:39:30.318Z,97637.16
2022-11-05T15:41:59.924Z,97644.72
2022-11-05T15:44:29.555Z,97647.63
2022-11-05T15:47:14.447Z,97644.31
2022-11-05T15:49:43.718Z,97645.06
2022-11-05T15:52:13.927Z,97647.50
2022-11-05T15:54:42.363Z,97647.13
2022-11-05T15:57:20.770Z,97641.41
2022-11-05T15:59:49.042Z,97647.84
2022-11-05T16:02:29.030Z,97655.75
2022-11-05T16:04:57.642Z,97647.34
2022-11-05T16:07:25.934Z,97651.63
2022-11-05T16:09:56.793Z,97655.03
2022-11-05T16:12:29.591Z,97656.25
2022-11-05T16:14:59.196Z,97660.25
2022-11-05T16:17:29.689Z,97653.34
2022-11-05T16:19:58.033Z,97655.78
2022-11-05T16:22:26.300Z,97657.13
2022-11-05T16:24:54.522Z,97655.78
2022-11-05T16:27:23.148Z,97645.09
2022-11-05T16:29:53.213Z,97647.28
2022-11-05T16:32:29.896Z,97644.94
2022-11-05T16:35:01.441Z,97645.19
2022-11-05T16:37:39.989Z,97650.44
2022-11-05T16:40:14.316Z,97649.81
2022-11-05T16:42:42.623Z,97652.09
2022-11-05T16:45:13.994Z,97644.47
2022-11-05T16:47:42.828Z,97646.75
2022-11-05T16:50:16.553Z,97651.22
2022-11-05T16:52:45.919Z,97647.94
2022-11-05T16:55:14.355Z,97648.31
2022-11-05T16:57:43.456Z,97653.53
2022-11-05T17:00:12.994Z,97649.28
2022-11-05T17:02:41.439Z,97660.22
2022-11-05T17:05:17.655Z,97654.47
2022-11-05T17:07:46.298Z,97657.03
2022-11-05T17:10:14.557Z,97658.25
2022-11-05T17:12:43.806Z,97657.84
2022-11-05T17:15:19.908Z,97651.91
2022-11-05T17:17:48.294Z,97665.25
2022-11-05T17:20:24.913Z,97661.97
2022-11-05T17:22:53.117Z,97660.84
2022-11-05T17:25:21.537Z,97662.50
2022-11-05T17:27:50.404Z,97660.94
2022-11-05T17:30:18.726Z,97662.97
2022-11-05T17:32:47.024Z,97655.66
2022-11-05T17:35:15.361Z,97663.19
2022-11-05T17:37:44.957Z,97661.59
2022-11-05T17:40:15.327Z,97666.28
2022-11-05T17:42:44.505Z,97667.63
2022-11-05T17:45:13.457Z,97667.63
2022-11-05T17:47:41.905Z,97676.81
2022-11-05T17:50:11.161Z,97669.81
2022-11-05T17:52:39.689Z,97677.44
2022-11-05T17:55:16.758Z,97671.44
2022-11-05T17:57:46.438Z,97672.47
2022-11-05T18:00:15.486Z,97665.41
2022-11-05T18:02:44.324Z,97657.16
2022-11-05T18:05:13.032Z,97666.38
2022-11-05T18:07:41.403Z,97664.56
2022-11-05T18:10:11.455Z,97668.19
2022-11-05T18:12:39.781Z,97669.63
2022-11-05T18:15:26.409Z,97673.59
2022-11-05T18:17:54.665Z,97671.09
2022-11-05T18:20:22.927Z,97673.28
2022-11-05T18:22:51.465Z,97673.28
2022-11-05T18:25:21.322Z,97675.84
2022-11-05T18:27:49.654Z,97675.25
2022-11-05T18:30:17.923Z,97664.00
2022-11-05T18:32:47.900Z,97681.44
2022-11-05T18:35:16.150Z,97676.09
2022-11-05T18:37:44.355Z,97691.25
2022-11-05T18:40:13.048Z,97690.66
2022-11-05T18:42:43.280Z,97691.84
2022-11-05T18:45:12.206Z,97687.75
2022-11-05T18:47:40.441Z,97686.94
2022-11-05T18:50:09.496Z,97685.56
2022-11-05T18:52:37.759Z,97679.09
2022-11-05T18:55:06.621Z,97677.75
2022-11-05T18:57:34.992Z,97669.22
2022-11-05T19:00:05.205Z,97676.31
2022-11-05T19:02:33.848Z,97679.81
2022-11-05T19:07:50.555Z,97681.38
2022-11-05T19:10:18.842Z,97688.16
2022-11-05T19:12:47.082Z,97680.53
2022-11-05T19:15:16.726Z,97683.03
2022-11-05T19:17:45.181Z,97680.25
2022-11-05T19:20:13.590Z,97675.13
2022-11-05T19:22:41.890Z,97678.72
2022-11-05T19:25:10.164Z,97683.44
2022-11-05T19:27:38.860Z,97687.28
2022-11-05T19:30:07.616Z,97685.03
2022-11-05T19:32:37.332Z,97685.38
2022-11-05T19:35:06.036Z,97689.41
2022-11-05T19:37:34.251Z,97683.41
2022-11-05T19:40:02.457Z,97681.75
2022-11-05T19:42:30.985Z,97690.63
2022-11-05T19:45:16.640Z,97694.13
2022-11-05T19:47:48.754Z,97692.41
2022-11-05T19:50:16.982Z,97692.44
2022-11-05T19:52:46.286Z,97693.28
2022-11-05T19:55:15.467Z,97694.06
2022-11-05T19:57:43.911Z,97697.47
2022-11-05T20:00:13.035Z,97687.81
2022-11-05T20:02:43.725Z,97689.84
2022-11-05T20:05:13.406Z,97700.34
2022-11-05T20:07:42.515Z,97696.25
2022-11-05T20:10:11.247Z,97703.22
2022-11-05T20:12:40.346Z,97692.81
2022-11-05T20:15:09.344Z,97691.84
2022-11-05T20:17:39.412Z,97685.41
2022-11-05T20:20:08.714Z,97687.88
2022-11-05T20:22:38.605Z,97690.59
2022-11-05T20:25:07.465Z,97692.41
2022-11-05T20:27:35.705Z,97685.22
2022-11-05T20:30:03.948Z,97693.19
2022-11-05T20:32:32.621Z,97690.41
2022-11-05T20:35:01.377Z,97696.19
2022-11-05T20:37:29.601Z,97696.78
2022-11-05T20:39:59.631Z,97702.94
2022-11-05T20:42:27.871Z,97706.19
2022-11-05T20:44:56.074Z,97704.66
2022-11-05T20:47:24.604Z,97711.41
2022-11-05T20:49:52.873Z,97715.47
2022-11-05T20:52:21.085Z,97702.38
2022-11-05T20:54:49.546Z,97691.97
2022-11-05T20:57:19.161Z,97684.72
2022-11-05T20:59:47.373Z,97685.47
2022-11-05T21:02:15.705Z,97692.94
2022-11-05T21:04:44.013Z,97688.66
2022-11-05T21:07:12.215Z,97688.06
2022-11-05T21:09:40.712Z,97681.38
2022-11-05T21:12:12.092Z,97681.22
2022-11-05T21:14:42.876Z,97685.34
2022-11-05T21:17:12.148Z,97693.28
2022-11-05T21:19:40.697Z,97696.91
2022-11-05T21:22:08.977Z,97697.66
2022-11-05T21:24:40.880Z,97702.16
2022-11-05T21:27:14.150Z,97704.72
2022-11-05T21:29:43.874Z,97717.47
2022-11-05T21:32:12.102Z,97724.72
2022-11-05T21:34:40.357Z,97717.75
2022-11-05T21:37:08.585Z,97725.47
2022-11-05T21:39:37.142Z,97725.22
2022-11-05T21:42:05.475Z,97726.22
2022-11-05T21:44:33.739Z,97717.88
2022-11-05T21:47:04.649Z,97707.66
2022-11-05T21:49:34.745Z,97705.00
2022-11-05T21:52:16.762Z,97714.34
2022-11-05T21:54:59.073Z,97699.97
2022-11-05T21:57:41.089Z,97706.91
2022-11-05T22:00:10.914Z,97705.94
2022-11-05T22:02:40.879Z,97693.38
2022-11-05T22:05:09.339Z,97679.00
2022-11-05T22:07:38.421Z,97667.84
2022-11-05T22:10:13.165Z,97668.16
2022-11-05T22:12:44.377Z,97639.47
2022-11-05T22:15:12.713Z,97646.94
2022-11-05T22:17:46.580Z,97662.41
2022-11-05T22:20:16.638Z,97650.91
2022-11-05T22:22:44.983Z,97652.81
2022-11-05T22:25:21.532Z,97660.41
2022-11-05T22:27:52.165Z,97650.34
2022-11-05T22:30:24.508Z,97648.03
2022-11-05T22:32:54.154Z,97651.50
2022-11-05T22:35:25.600Z,97657.34
2022-11-05T22:37:53.819Z,97643.13
2022-11-05T22:40:24.024Z,97644.63
2022-11-05T22:42:52.480Z,97637.84
2022-11-05T22:45:20.791Z,97648.59
2022-11-05T22:47:49.069Z,97651.34
2022-11-05T22:50:18.691Z,97646.78
2022-11-05T22:52:46.920Z,97642.81
2022-11-05T22:55:15.222Z,97637.38
2022-11-05T22:57:43.905Z,97641.34
2022-11-05T23:00:15.839Z,97637.19
2022-11-05T23:02:44.271Z,97640.81
2022-11-05T23:05:12.895Z,97631.56
2022-11-05T23:07:56.294Z,97634.13
2022-11-05T23:10:38.699Z,97637.28
2022-11-05T23:13:07.839Z,97634.75
2022-11-05T23:15:49.853Z,97636.03
2022-11-05T23:18:31.873Z,97632.66
2022-11-05T23:21:14.738Z,97633.56
2022-11-05T23:24:00.351Z,97638.47
2022-11-05T23:26:42.373Z,97636.97
2022-11-05T23:29:10.864Z,97634.84
2022-11-05T23:31:52.882Z,97630.63
2022-11-05T23:34:21.117Z,97626.56
2022-11-05T23:37:03.158Z,97623.69
2022-11-05T23:39:34.016Z,97626.47
2022-11-05T23:42:17.762Z,97628.28
2022-11-05T23:44:59.801Z,97630.06
2022-11-05T23:47:42.072Z,97635.31
2022-11-05T23:50:10.476Z,97621.78
2022-11-05T23:52:38.961Z,97626.34
2022-11-05T23:55:09.035Z,97620.81
2022-11-05T23:57:38.206Z,97631.66
